Home   Weather   Belgium   Kortrijk   Past weeks
Flag for Belgium

Past Weather in Kortrijk, West Flanders, Belgium — Yesterday and Last 2 Weeks

Currently: 45 °F. Clear. (Weather station: Lille Airport, Belgium). See more current weather

Past Weather in Kortrijk — Graph

°F

Kortrijk Temperature Yesterday

Maximum temperature yesterday: 59 °F (at 2:30 pm)
Minimum temperature yesterday: 39 °F (at 5:00 am)
Average temperature yesterday: 49 °F

High & Low Weather Summary for the Past Weeks

 TemperatureHumidityPressure
High64 °F (Oct 7, 1:00 pm)100% (Oct 2, 2:30 am)30.42 "Hg (Oct 2, 2:30 am)
Low39 °F (Oct 10, 6:30 am)45% (Oct 16, 4:30 pm)29.33 "Hg (Oct 2, 10:00 pm)
Average53 °F85%30.11 "Hg
* Reported Oct 2 2:00 am — Oct 17 2:00 am, Kortrijk. Weather by CustomWeather, © 2021

Note: Actual official high and low records may vary slightly from our data, if they occured in-between our weather recording intervals... More about our weather records

Kortrijk Weather History for the Previous 24 Hours

Scroll right to see more
 ConditionsComfort  
Time TempWeatherWind HumidityBarometerVisibility
2:00 am
Sun, Oct 17
45 °FClear.6 mph93%30.12 "Hg10 mi
1:30 am46 °FClear.3 mph87%30.12 "Hg10 mi
1:00 am46 °FClear.3 mph87%30.12 "Hg10 mi
12:30 am48 °FOvercast.5 mph82%30.12 "HgN/A
12:00 am48 °FOvercast.1 mph82%30.15 "HgN/A
11:30 pm
Sat, Oct 16
48 °FClear.5 mph87%30.15 "Hg10 mi
11:00 pm50 °FClear.2 mph82%30.15 "Hg10 mi
10:30 pm50 °FClear.No wind82%30.15 "Hg10 mi
10:00 pm50 °FClear.No wind82%30.15 "Hg10 mi
9:30 pm50 °FClear.No wind76%30.15 "Hg10 mi
9:00 pm50 °FClear.No wind76%30.15 "Hg10 mi
8:30 pm52 °FClear.2 mph72%30.15 "Hg10 mi
8:00 pm52 °FClear.1 mph72%30.15 "Hg10 mi
7:30 pm52 °FClear.3 mph72%30.15 "Hg10 mi
7:00 pm54 °FClear.3 mph63%30.15 "Hg10 mi
6:30 pm55 °FSunny.1 mph55%30.15 "Hg10 mi
6:00 pm55 °FSunny.1 mph55%30.15 "Hg10 mi
5:30 pm57 °FSunny.2 mph51%30.15 "Hg10 mi
5:00 pm57 °FSunny.1 mph51%30.15 "Hg10 mi
4:30 pm59 °FSunny.5 mph45%30.15 "Hg10 mi
4:00 pm59 °FSunny.2 mph48%30.15 "Hg10 mi
3:30 pm59 °FPassing clouds.6 mph48%30.15 "HgN/A
3:00 pm59 °FPassing clouds.3 mph48%30.15 "HgN/A
2:30 pm59 °FPassing clouds.6 mph48%30.15 "HgN/A
2:00 pm57 °FPassing clouds.5 mph51%30.18 "HgN/A
1:30 pm57 °FSunny.2 mph51%30.18 "Hg10 mi
1:00 pm57 °FSunny.3 mph51%30.18 "Hg10 mi
12:30 pm55 °FSunny.2 mph67%30.18 "Hg10 mi
12:00 pm54 °FSunny.2 mph77%30.18 "Hg10 mi
11:30 am54 °FSunny.2 mph77%30.21 "Hg10 mi
10:30 am46 °FSunny.2 mph100%30.18 "Hg10 mi
10:00 am45 °FSunny.No wind93%30.18 "Hg10 mi
9:30 am41 °FSunny.2 mph100%30.18 "Hg10 mi
9:00 am41 °FSunny.5 mph93%30.18 "Hg10 mi
8:30 am39 °FSunny.5 mph100%30.18 "Hg10 mi
8:00 am41 °FClear.1 mph93%30.18 "Hg10 mi
7:30 am39 °FClear.2 mph93%30.18 "Hg5 mi
7:00 am39 °FFog.No wind93%30.18 "Hg3 mi
6:30 am41 °FClear.2 mph100%30.18 "Hg10 mi
6:00 am41 °FClear.3 mph100%30.18 "Hg10 mi
5:30 am39 °FFog.1 mph100%30.18 "Hg3 mi
5:00 am39 °FFog.No wind93%30.18 "Hg3 mi
4:30 am41 °FClear.No wind93%30.18 "HgN/A
4:00 am41 °FClear.3 mph100%30.18 "Hg10 mi
3:30 am41 °FPassing clouds.3 mph93%30.18 "HgN/A
3:00 am41 °FLight fog.No wind93%30.18 "Hg4 mi
Weather by CustomWeather, © 2021

See weather overview